sensor_id;sensor_type;location;lat;lon;timestamp;temperature;humidity
24800;DHT22;12897;50.812;4.430;2023-09-19T00:02:05;16.50;99.90
24800;DHT22;12897;50.812;4.430;2023-09-19T00:04:34;16.60;99.90
24800;DHT22;12897;50.812;4.430;2023-09-19T00:07:03;16.50;99.90
24800;DHT22;12897;50.812;4.430;2023-09-19T00:09:31;16.60;99.90
24800;DHT22;12897;50.812;4.430;2023-09-19T00:12:00;16.50;99.90
24800;DHT22;12897;50.812;4.430;2023-09-19T00:14:28;16.50;99.90
24800;DHT22;12897;50.812;4.430;2023-09-19T00:16:55;16.50;99.90
24800;DHT22;12897;50.812;4.430;2023-09-19T00:19:23;16.50;99.90
24800;DHT22;12897;50.812;4.430;2023-09-19T00:21:51;16.50;99.90
24800;DHT22;12897;50.812;4.430;2023-09-19T00:24:20;16.40;99.90
24800;DHT22;12897;50.812;4.430;2023-09-19T00:26:49;16.40;99.90
24800;DHT22;12897;50.812;4.430;2023-09-19T00:29:17;16.30;99.90
24800;DHT22;12897;50.812;4.430;2023-09-19T00:31:44;16.30;99.90
24800;DHT22;12897;50.812;4.430;2023-09-19T00:34:12;16.30;99.90
24800;DHT22;12897;50.812;4.430;2023-09-19T00:36:39;16.30;99.90
24800;DHT22;12897;50.812;4.430;2023-09-19T00:39:07;16.30;99.90
24800;DHT22;12897;50.812;4.430;2023-09-19T00:41:35;16.30;99.90
24800;DHT22;12897;50.812;4.430;2023-09-19T00:44:03;16.30;99.90
24800;DHT22;12897;50.812;4.430;2023-09-19T00:46:31;16.30;99.90
24800;DHT22;12897;50.812;4.430;2023-09-19T00:48:59;16.30;99.90
24800;DHT22;12897;50.812;4.430;2023-09-19T00:51:27;16.30;99.90
24800;DHT22;12897;50.812;4.430;2023-09-19T00:53:56;16.20;99.90
24800;DHT22;12897;50.812;4.430;2023-09-19T00:56:26;16.30;99.90
24800;DHT22;12897;50.812;4.430;2023-09-19T00:58:53;16.30;99.90
24800;DHT22;12897;50.812;4.430;2023-09-19T01:01:21;16.30;99.90
24800;DHT22;12897;50.812;4.430;2023-09-19T01:03:51;16.40;99.90
24800;DHT22;12897;50.812;4.430;2023-09-19T01:06:18;16.40;99.90
24800;DHT22;12897;50.812;4.430;2023-09-19T01:08:46;16.40;99.90
24800;DHT22;12897;50.812;4.430;2023-09-19T01:11:25;16.30;99.90
24800;DHT22;12897;50.812;4.430;2023-09-19T01:13:58;16.40;99.90
24800;DHT22;12897;50.812;4.430;2023-09-19T01:17:23;16.30;99.90
24800;DHT22;12897;50.812;4.430;2023-09-19T01:19:45;16.30;99.90
24800;DHT22;12897;50.812;4.430;2023-09-19T01:30:43;16.10;99.90
24800;DHT22;12897;50.812;4.430;2023-09-19T01:33:11;16.00;99.90
24800;DHT22;12897;50.812;4.430;2023-09-19T01:35:39;16.00;99.90
24800;DHT22;12897;50.812;4.430;2023-09-19T01:38:07;16.00;99.90
24800;DHT22;12897;50.812;4.430;2023-09-19T01:40:43;16.00;99.90
24800;DHT22;12897;50.812;4.430;2023-09-19T01:43:13;16.00;99.90
24800;DHT22;12897;50.812;4.430;2023-09-19T01:48:46;16.00;99.90
24800;DHT22;12897;50.812;4.430;2023-09-19T01:51:19;16.00;99.90
24800;DHT22;12897;50.812;4.430;2023-09-19T01:53:56;16.10;99.90
24800;DHT22;12897;50.812;4.430;2023-09-19T01:59:21;16.00;99.90
24800;DHT22;12897;50.812;4.430;2023-09-19T02:01:51;16.00;99.90
24800;DHT22;12897;50.812;4.430;2023-09-19T02:04:19;16.00;99.90
24800;DHT22;12897;50.812;4.430;2023-09-19T02:06:47;15.90;99.90
24800;DHT22;12897;50.812;4.430;2023-09-19T02:09:15;15.90;99.90
24800;DHT22;12897;50.812;4.430;2023-09-19T02:11:43;15.90;99.90
24800;DHT22;12897;50.812;4.430;2023-09-19T02:14:10;15.90;99.90
24800;DHT22;12897;50.812;4.430;2023-09-19T02:16:38;16.00;99.90
24800;DHT22;12897;50.812;4.430;2023-09-19T02:19:06;16.20;99.90
24800;DHT22;12897;50.812;4.430;2023-09-19T02:21:34;16.30;99.90
24800;DHT22;12897;50.812;4.430;2023-09-19T02:24:03;16.20;99.90
24800;DHT22;12897;50.812;4.430;2023-09-19T02:26:32;16.10;99.90
24800;DHT22;12897;50.812;4.430;2023-09-19T02:29:01;16.00;99.90
24800;DHT22;12897;50.812;4.430;2023-09-19T02:31:30;16.00;99.90
24800;DHT22;12897;50.812;4.430;2023-09-19T02:33:58;16.20;99.90
24800;DHT22;12897;50.812;4.430;2023-09-19T02:36:26;16.10;99.90
24800;DHT22;12897;50.812;4.430;2023-09-19T02:38:54;16.20;99.90
24800;DHT22;12897;50.812;4.430;2023-09-19T02:41:21;16.20;99.90
24800;DHT22;12897;50.812;4.430;2023-09-19T02:43:49;16.20;99.90
24800;DHT22;12897;50.812;4.430;2023-09-19T02:46:17;16.20;99.90
24800;DHT22;12897;50.812;4.430;2023-09-19T02:48:44;16.20;99.90
24800;DHT22;12897;50.812;4.430;2023-09-19T02:51:12;16.20;99.90
24800;DHT22;12897;50.812;4.430;2023-09-19T02:53:40;16.30;99.90
24800;DHT22;12897;50.812;4.430;2023-09-19T02:56:09;16.30;99.90
24800;DHT22;12897;50.812;4.430;2023-09-19T02:58:38;16.20;99.90
24800;DHT22;12897;50.812;4.430;2023-09-19T03:01:09;16.30;99.90
24800;DHT22;12897;50.812;4.430;2023-09-19T03:03:41;16.40;99.90
24800;DHT22;12897;50.812;4.430;2023-09-19T03:06:08;16.30;99.90
24800;DHT22;12897;50.812;4.430;2023-09-19T03:08:36;16.30;99.90
24800;DHT22;12897;50.812;4.430;2023-09-19T03:11:06;16.30;99.90
24800;DHT22;12897;50.812;4.430;2023-09-19T03:13:35;16.20;99.90
24800;DHT22;12897;50.812;4.430;2023-09-19T03:16:04;16.10;99.90
24800;DHT22;12897;50.812;4.430;2023-09-19T03:18:35;16.00;99.90
24800;DHT22;12897;50.812;4.430;2023-09-19T03:21:03;16.10;99.90
24800;DHT22;12897;50.812;4.430;2023-09-19T03:23:31;16.20;99.90
24800;DHT22;12897;50.812;4.430;2023-09-19T03:25:59;16.20;99.90
24800;DHT22;12897;50.812;4.430;2023-09-19T03:28:27;16.10;99.90
24800;DHT22;12897;50.812;4.430;2023-09-19T03:31:01;16.10;99.90
24800;DHT22;12897;50.812;4.430;2023-09-19T03:33:29;16.10;99.90
24800;DHT22;12897;50.812;4.430;2023-09-19T03:35:58;16.20;99.90
24800;DHT22;12897;50.812;4.430;2023-09-19T03:38:27;16.20;99.90
24800;DHT22;12897;50.812;4.430;2023-09-19T03:40:56;16.10;99.90
24800;DHT22;12897;50.812;4.430;2023-09-19T03:43:23;16.20;99.90
24800;DHT22;12897;50.812;4.430;2023-09-19T03:45:56;16.10;99.90
24800;DHT22;12897;50.812;4.430;2023-09-19T03:48:23;16.10;99.90
24800;DHT22;12897;50.812;4.430;2023-09-19T03:50:51;16.10;99.90
24800;DHT22;12897;50.812;4.430;2023-09-19T03:53:20;16.00;99.90
24800;DHT22;12897;50.812;4.430;2023-09-19T03:55:47;16.00;99.90
24800;DHT22;12897;50.812;4.430;2023-09-19T03:58:15;16.10;99.90
24800;DHT22;12897;50.812;4.430;2023-09-19T04:00:43;16.00;99.90
24800;DHT22;12897;50.812;4.430;2023-09-19T04:03:10;15.90;99.90
24800;DHT22;12897;50.812;4.430;2023-09-19T04:05:40;15.90;99.90
24800;DHT22;12897;50.812;4.430;2023-09-19T04:08:08;15.90;99.90
24800;DHT22;12897;50.812;4.430;2023-09-19T04:10:35;15.80;99.90
24800;DHT22;12897;50.812;4.430;2023-09-19T04:13:03;15.70;99.90
24800;DHT22;12897;50.812;4.430;2023-09-19T04:15:31;15.70;99.90
24800;DHT22;12897;50.812;4.430;2023-09-19T04:17:58;15.70;99.90
24800;DHT22;12897;50.812;4.430;2023-09-19T04:20:26;15.60;99.90
24800;DHT22;12897;50.812;4.430;2023-09-19T04:22:53;15.60;99.90
24800;DHT22;12897;50.812;4.430;2023-09-19T04:25:21;15.70;99.90
24800;DHT22;12897;50.812;4.430;2023-09-19T04:27:49;15.70;99.90
24800;DHT22;12897;50.812;4.430;2023-09-19T04:30:17;15.60;99.90
24800;DHT22;12897;50.812;4.430;2023-09-19T04:32:44;15.60;99.90
24800;DHT22;12897;50.812;4.430;2023-09-19T04:35:13;15.60;99.90
24800;DHT22;12897;50.812;4.430;2023-09-19T04:37:41;15.60;99.90
24800;DHT22;12897;50.812;4.430;2023-09-19T04:40:10;15.70;99.90
24800;DHT22;12897;50.812;4.430;2023-09-19T04:42:45;15.60;99.90
24800;DHT22;12897;50.812;4.430;2023-09-19T04:45:12;15.60;99.90
24800;DHT22;12897;50.812;4.430;2023-09-19T04:47:42;15.50;99.90
24800;DHT22;12897;50.812;4.430;2023-09-19T04:50:10;15.60;99.90
24800;DHT22;12897;50.812;4.430;2023-09-19T04:52:43;15.50;99.90
24800;DHT22;12897;50.812;4.430;2023-09-19T04:55:14;15.50;99.90
24800;DHT22;12897;50.812;4.430;2023-09-19T04:57:46;15.40;99.90
24800;DHT22;12897;50.812;4.430;2023-09-19T05:00:16;15.40;99.90
24800;DHT22;12897;50.812;4.430;2023-09-19T05:02:48;15.30;99.90
24800;DHT22;12897;50.812;4.430;2023-09-19T05:05:15;15.30;99.90
24800;DHT22;12897;50.812;4.430;2023-09-19T05:07:43;15.40;99.90
24800;DHT22;12897;50.812;4.430;2023-09-19T05:10:14;15.40;99.90
24800;DHT22;12897;50.812;4.430;2023-09-19T05:12:45;15.40;99.90
24800;DHT22;12897;50.812;4.430;2023-09-19T05:15:14;15.30;99.90
24800;DHT22;12897;50.812;4.430;2023-09-19T05:17:51;15.40;99.90
24800;DHT22;12897;50.812;4.430;2023-09-19T05:20:21;15.40;99.90
24800;DHT22;12897;50.812;4.430;2023-09-19T05:23:01;15.40;99.90
24800;DHT22;12897;50.812;4.430;2023-09-19T05:25:31;15.50;99.90
24800;DHT22;12897;50.812;4.430;2023-09-19T05:28:01;15.50;99.90
24800;DHT22;12897;50.812;4.430;2023-09-19T05:30:30;15.50;99.90
24800;DHT22;12897;50.812;4.430;2023-09-19T05:33:00;15.50;99.90
24800;DHT22;12897;50.812;4.430;2023-09-19T05:35:29;15.50;99.90
24800;DHT22;12897;50.812;4.430;2023-09-19T05:37:58;15.50;99.90
24800;DHT22;12897;50.812;4.430;2023-09-19T05:40:26;15.40;99.90
24800;DHT22;12897;50.812;4.430;2023-09-19T05:42:54;15.60;99.90
24800;DHT22;12897;50.812;4.430;2023-09-19T05:45:22;15.70;99.90
24800;DHT22;12897;50.812;4.430;2023-09-19T05:47:53;15.70;99.90
24800;DHT22;12897;50.812;4.430;2023-09-19T05:50:25;15.80;99.90
24800;DHT22;12897;50.812;4.430;2023-09-19T05:52:54;15.90;99.90
24800;DHT22;12897;50.812;4.430;2023-09-19T05:55:25;16.00;99.90
24800;DHT22;12897;50.812;4.430;2023-09-19T05:57:53;15.90;99.90
24800;DHT22;12897;50.812;4.430;2023-09-19T06:00:22;15.90;99.90
24800;DHT22;12897;50.812;4.430;2023-09-19T06:03:00;16.00;99.90
24800;DHT22;12897;50.812;4.430;2023-09-19T06:05:30;16.00;99.90
24800;DHT22;12897;50.812;4.430;2023-09-19T06:07:58;16.00;99.90
24800;DHT22;12897;50.812;4.430;2023-09-19T06:10:32;15.90;99.90
24800;DHT22;12897;50.812;4.430;2023-09-19T06:12:59;16.20;99.90
24800;DHT22;12897;50.812;4.430;2023-09-19T06:15:29;16.20;99.90
24800;DHT22;12897;50.812;4.430;2023-09-19T06:17:59;16.30;99.90
24800;DHT22;12897;50.812;4.430;2023-09-19T06:20:28;16.20;99.90
24800;DHT22;12897;50.812;4.430;2023-09-19T06:22:57;16.10;99.90
24800;DHT22;12897;50.812;4.430;2023-09-19T06:25:24;16.00;99.90
24800;DHT22;12897;50.812;4.430;2023-09-19T06:27:53;16.20;99.90
24800;DHT22;12897;50.812;4.430;2023-09-19T06:30:24;16.30;99.90
24800;DHT22;12897;50.812;4.430;2023-09-19T06:32:58;16.30;99.90
24800;DHT22;12897;50.812;4.430;2023-09-19T06:35:27;16.20;99.90
24800;DHT22;12897;50.812;4.430;2023-09-19T06:37:57;16.30;99.90
24800;DHT22;12897;50.812;4.430;2023-09-19T06:40:25;16.30;99.90
24800;DHT22;12897;50.812;4.430;2023-09-19T06:45:42;16.30;99.90
24800;DHT22;12897;50.812;4.430;2023-09-19T06:48:11;16.30;99.90
24800;DHT22;12897;50.812;4.430;2023-09-19T06:50:38;16.20;99.90
24800;DHT22;12897;50.812;4.430;2023-09-19T06:53:07;16.20;99.90
24800;DHT22;12897;50.812;4.430;2023-09-19T06:55:36;16.30;99.90
24800;DHT22;12897;50.812;4.430;2023-09-19T06:58:06;16.10;99.90
24800;DHT22;12897;50.812;4.430;2023-09-19T07:00:36;16.30;99.90
24800;DHT22;12897;50.812;4.430;2023-09-19T07:03:08;16.30;99.90
24800;DHT22;12897;50.812;4.430;2023-09-19T07:05:40;16.30;99.90
24800;DHT22;12897;50.812;4.430;2023-09-19T07:08:10;16.30;99.90
24800;DHT22;12897;50.812;4.430;2023-09-19T07:10:41;16.30;99.90
24800;DHT22;12897;50.812;4.430;2023-09-19T07:13:10;16.30;99.90
24800;DHT22;12897;50.812;4.430;2023-09-19T07:15:39;16.30;99.90
24800;DHT22;12897;50.812;4.430;2023-09-19T07:18:11;16.30;99.90
24800;DHT22;12897;50.812;4.430;2023-09-19T07:20:39;16.40;99.90
24800;DHT22;12897;50.812;4.430;2023-09-19T07:23:06;16.40;99.90
24800;DHT22;12897;50.812;4.430;2023-09-19T07:25:35;16.40;99.90
24800;DHT22;12897;50.812;4.430;2023-09-19T07:28:03;16.40;99.90
24800;DHT22;12897;50.812;4.430;2023-09-19T07:30:35;16.70;99.90
24800;DHT22;12897;50.812;4.430;2023-09-19T07:33:03;16.80;99.90
24800;DHT22;12897;50.812;4.430;2023-09-19T07:35:33;16.80;99.90
24800;DHT22;12897;50.812;4.430;2023-09-19T07:38:01;16.70;99.90
24800;DHT22;12897;50.812;4.430;2023-09-19T07:40:28;16.70;99.90
24800;DHT22;12897;50.812;4.430;2023-09-19T07:42:56;16.80;99.90
24800;DHT22;12897;50.812;4.430;2023-09-19T07:45:25;16.90;99.90
24800;DHT22;12897;50.812;4.430;2023-09-19T07:47:53;16.90;99.90
24800;DHT22;12897;50.812;4.430;2023-09-19T07:50:22;17.10;99.90
24800;DHT22;12897;50.812;4.430;2023-09-19T07:52:51;17.20;99.90
24800;DHT22;12897;50.812;4.430;2023-09-19T07:55:19;17.30;99.90
24800;DHT22;12897;50.812;4.430;2023-09-19T07:57:48;17.40;99.90
24800;DHT22;12897;50.812;4.430;2023-09-19T08:00:16;17.40;99.90
24800;DHT22;12897;50.812;4.430;2023-09-19T08:02:44;17.50;99.90
24800;DHT22;12897;50.812;4.430;2023-09-19T08:05:13;17.60;99.90
24800;DHT22;12897;50.812;4.430;2023-09-19T08:07:46;17.70;99.90
24800;DHT22;12897;50.812;4.430;2023-09-19T08:10:17;17.60;99.90
24800;DHT22;12897;50.812;4.430;2023-09-19T08:12:47;17.70;99.90
24800;DHT22;12897;50.812;4.430;2023-09-19T08:15:19;17.80;99.90
24800;DHT22;12897;50.812;4.430;2023-09-19T08:17:48;17.70;99.90
24800;DHT22;12897;50.812;4.430;2023-09-19T08:20:17;17.60;99.90
24800;DHT22;12897;50.812;4.430;2023-09-19T08:22:52;17.50;99.90
24800;DHT22;12897;50.812;4.430;2023-09-19T08:25:24;17.60;99.90
24800;DHT22;12897;50.812;4.430;2023-09-19T08:27:56;17.60;99.90
24800;DHT22;12897;50.812;4.430;2023-09-19T08:30:26;17.50;99.90
24800;DHT22;12897;50.812;4.430;2023-09-19T08:32:59;17.40;99.90
24800;DHT22;12897;50.812;4.430;2023-09-19T08:35:28;17.50;99.90
24800;DHT22;12897;50.812;4.430;2023-09-19T08:37:56;17.60;99.90
24800;DHT22;12897;50.812;4.430;2023-09-19T08:40:25;17.50;99.90
24800;DHT22;12897;50.812;4.430;2023-09-19T08:42:56;17.60;99.90
24800;DHT22;12897;50.812;4.430;2023-09-19T08:45:25;17.70;99.90
24800;DHT22;12897;50.812;4.430;2023-09-19T08:48:20;17.90;99.90
24800;DHT22;12897;50.812;4.430;2023-09-19T08:50:51;17.80;99.90
24800;DHT22;12897;50.812;4.430;2023-09-19T08:53:26;18.10;99.90
24800;DHT22;12897;50.812;4.430;2023-09-19T08:55:52;18.20;99.90
24800;DHT22;12897;50.812;4.430;2023-09-19T08:58:21;18.20;99.90
24800;DHT22;12897;50.812;4.430;2023-09-19T09:00:51;18.20;99.90
24800;DHT22;12897;50.812;4.430;2023-09-19T09:03:20;18.10;99.90
24800;DHT22;12897;50.812;4.430;2023-09-19T09:05:51;18.20;99.90
24800;DHT22;12897;50.812;4.430;2023-09-19T09:08:19;18.50;99.90
24800;DHT22;12897;50.812;4.430;2023-09-19T09:10:48;18.50;99.90
24800;DHT22;12897;50.812;4.430;2023-09-19T09:13:17;18.40;99.90
24800;DHT22;12897;50.812;4.430;2023-09-19T09:15:46;18.60;99.90
24800;DHT22;12897;50.812;4.430;2023-09-19T09:18:14;18.70;99.90
24800;DHT22;12897;50.812;4.430;2023-09-19T09:20:42;18.90;99.90
24800;DHT22;12897;50.812;4.430;2023-09-19T09:23:11;19.00;99.90
24800;DHT22;12897;50.812;4.430;2023-09-19T09:25:53;18.90;99.90
24800;DHT22;12897;50.812;4.430;2023-09-19T09:28:24;19.00;99.90
24800;DHT22;12897;50.812;4.430;2023-09-19T09:30:52;19.20;99.90
24800;DHT22;12897;50.812;4.430;2023-09-19T09:33:21;19.40;99.90
24800;DHT22;12897;50.812;4.430;2023-09-19T09:35:53;19.40;99.90
24800;DHT22;12897;50.812;4.430;2023-09-19T09:38:27;19.30;99.90
24800;DHT22;12897;50.812;4.430;2023-09-19T09:40:57;19.10;99.90
24800;DHT22;12897;50.812;4.430;2023-09-19T09:43:37;19.10;99.90
24800;DHT22;12897;50.812;4.430;2023-09-19T09:49:01;19.40;99.90
24800;DHT22;12897;50.812;4.430;2023-09-19T09:51:51;19.20;99.90
24800;DHT22;12897;50.812;4.430;2023-09-19T09:54:29;19.20;99.90
24800;DHT22;12897;50.812;4.430;2023-09-19T09:57:09;19.20;99.90
24800;DHT22;12897;50.812;4.430;2023-09-19T09:59:57;19.30;99.90
24800;DHT22;12897;50.812;4.430;2023-09-19T10:02:36;19.40;99.90
24800;DHT22;12897;50.812;4.430;2023-09-19T10:05:18;19.50;99.90
24800;DHT22;12897;50.812;4.430;2023-09-19T10:07:51;19.30;99.90
24800;DHT22;12897;50.812;4.430;2023-09-19T10:10:37;19.30;99.90
24800;DHT22;12897;50.812;4.430;2023-09-19T10:13:14;19.40;99.90
24800;DHT22;12897;50.812;4.430;2023-09-19T10:15:46;19.30;99.90
24800;DHT22;12897;50.812;4.430;2023-09-19T10:18:15;19.20;99.90
24800;DHT22;12897;50.812;4.430;2023-09-19T10:20:46;19.10;99.90
24800;DHT22;12897;50.812;4.430;2023-09-19T10:23:18;19.00;99.90
24800;DHT22;12897;50.812;4.430;2023-09-19T10:25:55;18.90;99.90
24800;DHT22;12897;50.812;4.430;2023-09-19T10:28:22;19.00;99.90
24800;DHT22;12897;50.812;4.430;2023-09-19T10:30:58;19.00;99.90
24800;DHT22;12897;50.812;4.430;2023-09-19T10:33:26;19.00;99.90
24800;DHT22;12897;50.812;4.430;2023-09-19T10:35:58;19.00;99.90
24800;DHT22;12897;50.812;4.430;2023-09-19T10:38:28;19.00;99.90
24800;DHT22;12897;50.812;4.430;2023-09-19T10:40:57;19.00;99.90
24800;DHT22;12897;50.812;4.430;2023-09-19T10:43:33;19.10;99.90
24800;DHT22;12897;50.812;4.430;2023-09-19T10:46:05;19.30;99.90
24800;DHT22;12897;50.812;4.430;2023-09-19T10:48:32;19.30;99.90
24800;DHT22;12897;50.812;4.430;2023-09-19T10:51:22;19.40;99.90
24800;DHT22;12897;50.812;4.430;2023-09-19T10:53:57;19.50;99.90
24800;DHT22;12897;50.812;4.430;2023-09-19T10:56:32;19.50;99.90
24800;DHT22;12897;50.812;4.430;2023-09-19T10:59:12;19.40;99.90
24800;DHT22;12897;50.812;4.430;2023-09-19T11:01:54;19.40;99.90
24800;DHT22;12897;50.812;4.430;2023-09-19T11:04:32;19.50;99.90
24800;DHT22;12897;50.812;4.430;2023-09-19T11:07:09;19.70;99.90
24800;DHT22;12897;50.812;4.430;2023-09-19T11:09:53;19.90;99.90
24800;DHT22;12897;50.812;4.430;2023-09-19T11:15:05;19.90;99.90
24800;DHT22;12897;50.812;4.430;2023-09-19T11:17:37;19.90;99.90
24800;DHT22;12897;50.812;4.430;2023-09-19T11:30:42;20.30;99.90
24800;DHT22;12897;50.812;4.430;2023-09-19T11:36:06;20.70;99.90
24800;DHT22;12897;50.812;4.430;2023-09-19T11:46:53;20.70;99.90
24800;DHT22;12897;50.812;4.430;2023-09-19T11:49:26;20.70;99.90
24800;DHT22;12897;50.812;4.430;2023-09-19T11:51:56;20.60;99.90
24800;DHT22;12897;50.812;4.430;2023-09-19T11:54:24;20.70;99.90
24800;DHT22;12897;50.812;4.430;2023-09-19T11:56:53;20.70;99.90
24800;DHT22;12897;50.812;4.430;2023-09-19T11:59:26;20.90;99.90
24800;DHT22;12897;50.812;4.430;2023-09-19T12:02:07;21.20;99.90
24800;DHT22;12897;50.812;4.430;2023-09-19T12:04:39;21.20;99.90
24800;DHT22;12897;50.812;4.430;2023-09-19T12:07:11;21.10;99.90
24800;DHT22;12897;50.812;4.430;2023-09-19T12:09:41;21.00;99.90
24800;DHT22;12897;50.812;4.430;2023-09-19T12:12:24;20.90;99.90
24800;DHT22;12897;50.812;4.430;2023-09-19T12:14:56;20.90;99.90
24800;DHT22;12897;50.812;4.430;2023-09-19T12:17:38;21.00;99.90
24800;DHT22;12897;50.812;4.430;2023-09-19T12:20:08;21.10;99.90
24800;DHT22;12897;50.812;4.430;2023-09-19T12:22:44;20.90;99.90
24800;DHT22;12897;50.812;4.430;2023-09-19T12:25:14;20.90;99.90
24800;DHT22;12897;50.812;4.430;2023-09-19T12:27:50;20.90;99.90
24800;DHT22;12897;50.812;4.430;2023-09-19T12:30:19;21.10;99.90
24800;DHT22;12897;50.812;4.430;2023-09-19T12:32:47;21.10;99.90
24800;DHT22;12897;50.812;4.430;2023-09-19T12:35:31;21.20;99.90
24800;DHT22;12897;50.812;4.430;2023-09-19T12:38:02;21.10;99.90
24800;DHT22;12897;50.812;4.430;2023-09-19T12:40:30;21.20;99.90
24800;DHT22;12897;50.812;4.430;2023-09-19T12:42:59;21.20;99.90
24800;DHT22;12897;50.812;4.430;2023-09-19T12:45:29;21.20;99.90
24800;DHT22;12897;50.812;4.430;2023-09-19T12:48:25;21.00;99.90
24800;DHT22;12897;50.812;4.430;2023-09-19T12:51:07;21.10;99.90
24800;DHT22;12897;50.812;4.430;2023-09-19T12:53:41;21.30;99.90
24800;DHT22;12897;50.812;4.430;2023-09-19T12:56:16;21.40;99.90
24800;DHT22;12897;50.812;4.430;2023-09-19T12:58:52;21.40;99.90
24800;DHT22;12897;50.812;4.430;2023-09-19T13:01:23;21.40;99.90
24800;DHT22;12897;50.812;4.430;2023-09-19T13:04:18;21.20;99.90
24800;DHT22;12897;50.812;4.430;2023-09-19T13:06:46;21.40;99.90
24800;DHT22;12897;50.812;4.430;2023-09-19T13:09:17;21.40;99.90
24800;DHT22;12897;50.812;4.430;2023-09-19T13:11:48;21.50;99.90
24800;DHT22;12897;50.812;4.430;2023-09-19T13:14:24;21.70;99.90
24800;DHT22;12897;50.812;4.430;2023-09-19T13:17:02;21.70;99.90
24800;DHT22;12897;50.812;4.430;2023-09-19T13:19:51;21.50;99.90
24800;DHT22;12897;50.812;4.430;2023-09-19T13:22:40;21.50;99.90
24800;DHT22;12897;50.812;4.430;2023-09-19T13:25:19;21.30;99.90
24800;DHT22;12897;50.812;4.430;2023-09-19T13:27:49;21.30;99.90
24800;DHT22;12897;50.812;4.430;2023-09-19T13:30:20;21.30;99.90
24800;DHT22;12897;50.812;4.430;2023-09-19T13:32:48;21.30;99.90
24800;DHT22;12897;50.812;4.430;2023-09-19T13:35:16;21.40;99.90
24800;DHT22;12897;50.812;4.430;2023-09-19T13:37:47;21.60;99.90
24800;DHT22;12897;50.812;4.430;2023-09-19T13:40:18;21.80;99.90
24800;DHT22;12897;50.812;4.430;2023-09-19T13:42:47;21.80;99.90
24800;DHT22;12897;50.812;4.430;2023-09-19T13:45:15;22.00;99.90
24800;DHT22;12897;50.812;4.430;2023-09-19T13:47:44;21.80;99.90
24800;DHT22;12897;50.812;4.430;2023-09-19T13:50:12;21.90;99.90
24800;DHT22;12897;50.812;4.430;2023-09-19T13:52:41;21.80;99.90
24800;DHT22;12897;50.812;4.430;2023-09-19T13:55:09;21.70;99.90
24800;DHT22;12897;50.812;4.430;2023-09-19T13:57:36;21.60;99.90
24800;DHT22;12897;50.812;4.430;2023-09-19T14:00:04;21.50;99.90
24800;DHT22;12897;50.812;4.430;2023-09-19T14:02:34;21.60;99.90
24800;DHT22;12897;50.812;4.430;2023-09-19T14:05:03;21.50;99.90
24800;DHT22;12897;50.812;4.430;2023-09-19T14:07:30;21.40;99.90
24800;DHT22;12897;50.812;4.430;2023-09-19T14:09:58;21.50;99.90
24800;DHT22;12897;50.812;4.430;2023-09-19T14:12:26;21.40;99.90
24800;DHT22;12897;50.812;4.430;2023-09-19T14:14:53;21.20;99.90
24800;DHT22;12897;50.812;4.430;2023-09-19T14:17:22;21.20;99.90
24800;DHT22;12897;50.812;4.430;2023-09-19T14:19:51;21.40;99.90
24800;DHT22;12897;50.812;4.430;2023-09-19T14:22:20;21.40;99.90
24800;DHT22;12897;50.812;4.430;2023-09-19T14:24:50;21.50;99.90
24800;DHT22;12897;50.812;4.430;2023-09-19T14:27:18;21.60;99.90
24800;DHT22;12897;50.812;4.430;2023-09-19T14:29:47;21.50;99.90
24800;DHT22;12897;50.812;4.430;2023-09-19T14:32:20;21.50;99.90
24800;DHT22;12897;50.812;4.430;2023-09-19T14:34:47;21.70;99.90
24800;DHT22;12897;50.812;4.430;2023-09-19T14:37:15;21.70;99.90
24800;DHT22;12897;50.812;4.430;2023-09-19T14:39:47;21.80;99.90
24800;DHT22;12897;50.812;4.430;2023-09-19T14:42:15;21.70;99.90
24800;DHT22;12897;50.812;4.430;2023-09-19T14:44:44;21.60;99.90
24800;DHT22;12897;50.812;4.430;2023-09-19T14:47:13;21.70;99.90
24800;DHT22;12897;50.812;4.430;2023-09-19T14:49:41;21.50;99.90
24800;DHT22;12897;50.812;4.430;2023-09-19T14:52:11;21.50;99.90
24800;DHT22;12897;50.812;4.430;2023-09-19T14:54:40;21.40;99.90
24800;DHT22;12897;50.812;4.430;2023-09-19T14:57:08;21.30;99.90
24800;DHT22;12897;50.812;4.430;2023-09-19T14:59:36;21.20;99.90
24800;DHT22;12897;50.812;4.430;2023-09-19T15:02:05;21.20;99.90
24800;DHT22;12897;50.812;4.430;2023-09-19T15:04:33;21.20;99.90
24800;DHT22;12897;50.812;4.430;2023-09-19T15:07:00;21.30;99.90
24800;DHT22;12897;50.812;4.430;2023-09-19T15:09:29;21.50;99.90
24800;DHT22;12897;50.812;4.430;2023-09-19T15:11:58;21.60;99.90
24800;DHT22;12897;50.812;4.430;2023-09-19T15:14:26;21.50;99.90
24800;DHT22;12897;50.812;4.430;2023-09-19T15:16:56;21.20;99.90
24800;DHT22;12897;50.812;4.430;2023-09-19T15:19:23;21.10;99.90
24800;DHT22;12897;50.812;4.430;2023-09-19T15:21:52;20.80;99.90
24800;DHT22;12897;50.812;4.430;2023-09-19T15:24:20;20.90;99.90
24800;DHT22;12897;50.812;4.430;2023-09-19T15:26:48;20.80;99.90
24800;DHT22;12897;50.812;4.430;2023-09-19T15:29:18;20.90;99.90
24800;DHT22;12897;50.812;4.430;2023-09-19T15:31:47;20.90;99.90
24800;DHT22;12897;50.812;4.430;2023-09-19T15:34:17;20.70;99.90
24800;DHT22;12897;50.812;4.430;2023-09-19T15:36:44;20.80;99.90
24800;DHT22;12897;50.812;4.430;2023-09-19T15:39:12;20.70;99.90
24800;DHT22;12897;50.812;4.430;2023-09-19T15:41:45;20.60;99.90
24800;DHT22;12897;50.812;4.430;2023-09-19T15:44:14;20.60;99.90
24800;DHT22;12897;50.812;4.430;2023-09-19T15:46:44;20.40;99.90
24800;DHT22;12897;50.812;4.430;2023-09-19T15:49:11;20.30;99.90
24800;DHT22;12897;50.812;4.430;2023-09-19T15:51:39;20.40;99.90
24800;DHT22;12897;50.812;4.430;2023-09-19T15:54:16;20.50;99.90
24800;DHT22;12897;50.812;4.430;2023-09-19T15:56:41;20.60;99.90
24800;DHT22;12897;50.812;4.430;2023-09-19T15:59:09;20.70;99.90
24800;DHT22;12897;50.812;4.430;2023-09-19T16:01:39;20.80;99.90
24800;DHT22;12897;50.812;4.430;2023-09-19T16:04:10;20.60;99.90
24800;DHT22;12897;50.812;4.430;2023-09-19T16:06:38;20.50;99.90
24800;DHT22;12897;50.812;4.430;2023-09-19T16:09:06;20.40;99.90
24800;DHT22;12897;50.812;4.430;2023-09-19T16:11:35;20.50;99.90
24800;DHT22;12897;50.812;4.430;2023-09-19T16:14:03;20.50;99.90
24800;DHT22;12897;50.812;4.430;2023-09-19T16:16:32;20.60;99.90
24800;DHT22;12897;50.812;4.430;2023-09-19T16:19:03;20.60;99.90
24800;DHT22;12897;50.812;4.430;2023-09-19T16:21:32;20.60;99.90
24800;DHT22;12897;50.812;4.430;2023-09-19T16:24:02;20.60;99.90
24800;DHT22;12897;50.812;4.430;2023-09-19T16:26:30;20.50;99.90
24800;DHT22;12897;50.812;4.430;2023-09-19T16:28:58;20.40;99.90
24800;DHT22;12897;50.812;4.430;2023-09-19T16:31:30;20.40;99.90
24800;DHT22;12897;50.812;4.430;2023-09-19T16:33:59;20.60;99.90
24800;DHT22;12897;50.812;4.430;2023-09-19T16:36:28;20.60;99.90